sensor_id;sensor_type;location;lat;lon;timestamp;pressure;altitude;pressure_sealevel;temperature;humidity
81274;BME280;70753;47.908;11.274;2023-11-18T00:01:34;95510.28;;;4.94;75.77
81274;BME280;70753;47.908;11.274;2023-11-18T00:04:20;95502.00;;;4.68;76.94
81274;BME280;70753;47.908;11.274;2023-11-18T00:07:06;95504.09;;;5.00;75.54
81274;BME280;70753;47.908;11.274;2023-11-18T00:09:53;95493.75;;;5.10;75.50
81274;BME280;70753;47.908;11.274;2023-11-18T00:12:38;95500.88;;;5.21;74.80
81274;BME280;70753;47.908;11.274;2023-11-18T00:15:24;95505.13;;;5.11;75.25
81274;BME280;70753;47.908;11.274;2023-11-18T00:18:10;95512.22;;;5.33;74.38
81274;BME280;70753;47.908;11.274;2023-11-18T00:20:55;95502.69;;;5.09;74.76
81274;BME280;70753;47.908;11.274;2023-11-18T00:23:41;95502.13;;;5.07;75.24
81274;BME280;70753;47.908;11.274;2023-11-18T00:26:28;95512.22;;;5.22;74.69
81274;BME280;70753;47.908;11.274;2023-11-18T00:29:14;95512.00;;;5.23;74.50
81274;BME280;70753;47.908;11.274;2023-11-18T00:32:00;95512.34;;;5.38;74.19
81274;BME280;70753;47.908;11.274;2023-11-18T00:34:46;95506.72;;;5.23;74.47
81274;BME280;70753;47.908;11.274;2023-11-18T00:37:31;95508.22;;;5.19;74.54
81274;BME280;70753;47.908;11.274;2023-11-18T00:40:17;95515.09;;;5.20;74.39
81274;BME280;70753;47.908;11.274;2023-11-18T00:43:04;95511.19;;;5.23;74.48
81274;BME280;70753;47.908;11.274;2023-11-18T00:45:50;95514.28;;;5.20;74.33
81274;BME280;70753;47.908;11.274;2023-11-18T00:48:35;95522.56;;;5.12;74.72
81274;BME280;70753;47.908;11.274;2023-11-18T00:51:21;95515.69;;;5.11;74.86
81274;BME280;70753;47.908;11.274;2023-11-18T00:54:07;95522.34;;;5.13;74.39
81274;BME280;70753;47.908;11.274;2023-11-18T00:56:53;95520.41;;;5.20;74.59
81274;BME280;70753;47.908;11.274;2023-11-18T00:59:42;95521.28;;;5.49;73.74
81274;BME280;70753;47.908;11.274;2023-11-18T01:02:28;95519.47;;;5.26;74.55
81274;BME280;70753;47.908;11.274;2023-11-18T01:05:14;95534.16;;;5.45;73.36
81274;BME280;70753;47.908;11.274;2023-11-18T01:08:00;95526.00;;;5.35;73.90
81274;BME280;70753;47.908;11.274;2023-11-18T01:10:45;95533.94;;;5.35;73.95
81274;BME280;70753;47.908;11.274;2023-11-18T01:13:31;95536.00;;;5.33;73.93
81274;BME280;70753;47.908;11.274;2023-11-18T01:16:18;95548.88;;;5.18;74.80
81274;BME280;70753;47.908;11.274;2023-11-18T01:19:04;95533.50;;;5.15;74.89
81274;BME280;70753;47.908;11.274;2023-11-18T01:21:50;95533.03;;;5.30;74.60
81274;BME280;70753;47.908;11.274;2023-11-18T01:24:36;95536.25;;;5.20;74.95
81274;BME280;70753;47.908;11.274;2023-11-18T01:27:21;95532.56;;;5.44;73.81
81274;BME280;70753;47.908;11.274;2023-11-18T01:30:08;95533.13;;;5.35;74.60
81274;BME280;70753;47.908;11.274;2023-11-18T01:32:55;95539.56;;;5.39;74.56
81274;BME280;70753;47.908;11.274;2023-11-18T01:35:41;95549.56;;;5.49;74.02
81274;BME280;70753;47.908;11.274;2023-11-18T01:38:27;95546.91;;;5.37;74.51
81274;BME280;70753;47.908;11.274;2023-11-18T01:41:13;95544.16;;;5.55;74.33
81274;BME280;70753;47.908;11.274;2023-11-18T01:43:58;95546.81;;;5.20;75.91
81274;BME280;70753;47.908;11.274;2023-11-18T01:46:44;95551.44;;;5.36;74.78
81274;BME280;70753;47.908;11.274;2023-11-18T01:49:32;95552.56;;;5.40;75.07
81274;BME280;70753;47.908;11.274;2023-11-18T01:52:20;95554.72;;;5.55;74.43
81274;BME280;70753;47.908;11.274;2023-11-18T01:55:07;95553.25;;;6.10;71.70
81274;BME280;70753;47.908;11.274;2023-11-18T01:57:53;95556.69;;;6.11;71.83
81274;BME280;70753;47.908;11.274;2023-11-18T02:00:40;95563.13;;;6.15;71.55
81274;BME280;70753;47.908;11.274;2023-11-18T02:03:27;95555.31;;;5.45;74.31
81274;BME280;70753;47.908;11.274;2023-11-18T02:06:14;95557.63;;;5.54;74.26
81274;BME280;70753;47.908;11.274;2023-11-18T02:09:00;95565.38;;;5.72;74.25
81274;BME280;70753;47.908;11.274;2023-11-18T02:11:57;95572.09;;;5.86;73.63
81274;BME280;70753;47.908;11.274;2023-11-18T02:14:45;95570.00;;;5.88;73.30
81274;BME280;70753;47.908;11.274;2023-11-18T02:17:33;95571.38;;;6.18;72.48
81274;BME280;70753;47.908;11.274;2023-11-18T02:20:20;95569.34;;;5.58;74.28
81274;BME280;70753;47.908;11.274;2023-11-18T02:23:07;95562.22;;;5.47;74.76
81274;BME280;70753;47.908;11.274;2023-11-18T02:25:55;95571.66;;;5.42;75.10
81274;BME280;70753;47.908;11.274;2023-11-18T02:28:41;95568.97;;;5.54;75.10
81274;BME280;70753;47.908;11.274;2023-11-18T02:31:31;95566.84;;;6.02;73.04
81274;BME280;70753;47.908;11.274;2023-11-18T02:34:23;95577.94;;;5.41;75.24
81274;BME280;70753;47.908;11.274;2023-11-18T02:37:12;95577.31;;;5.97;73.62
81274;BME280;70753;47.908;11.274;2023-11-18T02:40:03;95576.06;;;6.00;72.97
81274;BME280;70753;47.908;11.274;2023-11-18T02:42:51;95574.09;;;5.95;73.68
81274;BME280;70753;47.908;11.274;2023-11-18T02:45:39;95563.16;;;6.03;73.27
81274;BME280;70753;47.908;11.274;2023-11-18T02:48:26;95565.31;;;6.18;71.87
81274;BME280;70753;47.908;11.274;2023-11-18T02:51:12;95564.09;;;6.37;71.78
81274;BME280;70753;47.908;11.274;2023-11-18T02:53:58;95559.16;;;6.01;73.07
81274;BME280;70753;47.908;11.274;2023-11-18T02:56:44;95562.50;;;5.96;73.02
81274;BME280;70753;47.908;11.274;2023-11-18T02:59:31;95564.13;;;6.26;72.58
81274;BME280;70753;47.908;11.274;2023-11-18T03:02:16;95571.59;;;5.89;73.86
81274;BME280;70753;47.908;11.274;2023-11-18T03:05:02;95567.69;;;5.80;74.10
81274;BME280;70753;47.908;11.274;2023-11-18T03:07:48;95570.03;;;5.65;75.09
81274;BME280;70753;47.908;11.274;2023-11-18T03:10:34;95573.13;;;5.27;76.54
81274;BME280;70753;47.908;11.274;2023-11-18T03:13:20;95575.56;;;5.17;77.48
81274;BME280;70753;47.908;11.274;2023-11-18T03:16:08;95580.72;;;5.23;77.15
81274;BME280;70753;47.908;11.274;2023-11-18T03:18:54;95581.03;;;5.85;74.65
81274;BME280;70753;47.908;11.274;2023-11-18T03:21:39;95574.03;;;5.90;74.12
81274;BME280;70753;47.908;11.274;2023-11-18T03:24:25;95583.56;;;5.80;74.25
81274;BME280;70753;47.908;11.274;2023-11-18T03:27:11;95589.19;;;5.95;73.08
81274;BME280;70753;47.908;11.274;2023-11-18T03:29:56;95583.38;;;5.47;75.08
81274;BME280;70753;47.908;11.274;2023-11-18T03:32:44;95593.00;;;5.99;72.99
81274;BME280;70753;47.908;11.274;2023-11-18T03:35:29;95587.34;;;5.95;73.18
81274;BME280;70753;47.908;11.274;2023-11-18T03:38:15;95595.31;;;5.84;74.07
81274;BME280;70753;47.908;11.274;2023-11-18T03:41:01;95606.56;;;5.91;73.68
81274;BME280;70753;47.908;11.274;2023-11-18T03:43:46;95604.16;;;6.01;72.90
81274;BME280;70753;47.908;11.274;2023-11-18T03:46:32;95600.03;;;6.33;71.89
81274;BME280;70753;47.908;11.274;2023-11-18T03:49:19;95592.53;;;6.30;71.85
81274;BME280;70753;47.908;11.274;2023-11-18T03:52:05;95603.53;;;6.10;71.89
81274;BME280;70753;47.908;11.274;2023-11-18T03:54:51;95611.53;;;6.27;72.06
81274;BME280;70753;47.908;11.274;2023-11-18T03:57:37;95611.47;;;6.10;72.28
81274;BME280;70753;47.908;11.274;2023-11-18T04:00:23;95612.53;;;6.09;72.67
81274;BME280;70753;47.908;11.274;2023-11-18T04:03:08;95600.19;;;6.03;73.09
81274;BME280;70753;47.908;11.274;2023-11-18T04:05:55;95599.69;;;5.90;73.30
81274;BME280;70753;47.908;11.274;2023-11-18T04:08:43;95603.31;;;6.12;72.13
81274;BME280;70753;47.908;11.274;2023-11-18T04:11:29;95600.34;;;5.97;72.87
81274;BME280;70753;47.908;11.274;2023-11-18T04:14:15;95596.81;;;5.45;74.72
81274;BME280;70753;47.908;11.274;2023-11-18T04:17:00;95592.97;;;5.76;73.72
81274;BME280;70753;47.908;11.274;2023-11-18T04:19:46;95591.25;;;5.81;73.70
81274;BME280;70753;47.908;11.274;2023-11-18T04:22:33;95591.63;;;5.62;73.95
81274;BME280;70753;47.908;11.274;2023-11-18T04:25:19;95586.69;;;5.54;74.85
81274;BME280;70753;47.908;11.274;2023-11-18T04:28:04;95582.66;;;5.63;74.32
81274;BME280;70753;47.908;11.274;2023-11-18T04:30:50;95590.34;;;5.99;72.91
81274;BME280;70753;47.908;11.274;2023-11-18T04:33:36;95592.50;;;6.02;73.08
81274;BME280;70753;47.908;11.274;2023-11-18T04:36:22;95592.88;;;5.94;73.06
81274;BME280;70753;47.908;11.274;2023-11-18T04:39:09;95590.13;;;5.89;73.04
81274;BME280;70753;47.908;11.274;2023-11-18T04:41:54;95589.47;;;6.10;72.67
81274;BME280;70753;47.908;11.274;2023-11-18T04:44:40;95596.22;;;5.66;74.11
81274;BME280;70753;47.908;11.274;2023-11-18T04:47:26;95595.41;;;5.89;73.55
81274;BME280;70753;47.908;11.274;2023-11-18T04:50:11;95592.41;;;5.74;73.82
81274;BME280;70753;47.908;11.274;2023-11-18T04:52:57;95602.41;;;5.72;74.35
81274;BME280;70753;47.908;11.274;2023-11-18T04:55:44;95593.91;;;5.70;73.85
81274;BME280;70753;47.908;11.274;2023-11-18T04:58:30;95589.47;;;5.47;75.63
81274;BME280;70753;47.908;11.274;2023-11-18T05:01:16;95603.72;;;5.58;74.97
81274;BME280;70753;47.908;11.274;2023-11-18T05:04:02;95600.47;;;5.67;74.71
81274;BME280;70753;47.908;11.274;2023-11-18T05:06:47;95601.28;;;5.68;74.97
81274;BME280;70753;47.908;11.274;2023-11-18T05:09:33;95600.22;;;5.80;74.04
81274;BME280;70753;47.908;11.274;2023-11-18T05:12:20;95603.03;;;5.62;75.09
81274;BME280;70753;47.908;11.274;2023-11-18T05:15:07;95601.25;;;6.02;73.46
81274;BME280;70753;47.908;11.274;2023-11-18T05:17:53;95595.97;;;5.91;73.51
81274;BME280;70753;47.908;11.274;2023-11-18T05:20:39;95595.66;;;5.87;73.21
81274;BME280;70753;47.908;11.274;2023-11-18T05:23:24;95591.66;;;5.38;75.77
81274;BME280;70753;47.908;11.274;2023-11-18T05:26:10;95583.13;;;5.60;74.44
81274;BME280;70753;47.908;11.274;2023-11-18T05:28:57;95594.44;;;6.06;72.95
81274;BME280;70753;47.908;11.274;2023-11-18T05:31:43;95598.47;;;6.09;73.03
81274;BME280;70753;47.908;11.274;2023-11-18T05:34:28;95600.47;;;6.30;71.65
81274;BME280;70753;47.908;11.274;2023-11-18T05:37:14;95592.25;;;6.15;72.53
81274;BME280;70753;47.908;11.274;2023-11-18T05:40:00;95596.19;;;6.01;73.06
81274;BME280;70753;47.908;11.274;2023-11-18T05:42:45;95588.34;;;6.06;72.83
81274;BME280;70753;47.908;11.274;2023-11-18T05:45:34;95592.66;;;6.35;71.89
81274;BME280;70753;47.908;11.274;2023-11-18T05:48:19;95597.25;;;6.28;72.72
81274;BME280;70753;47.908;11.274;2023-11-18T05:51:05;95591.72;;;5.78;75.13
81274;BME280;70753;47.908;11.274;2023-11-18T05:53:51;95592.53;;;5.79;75.43
81274;BME280;70753;47.908;11.274;2023-11-18T05:56:37;95593.88;;;6.16;74.31
81274;BME280;70753;47.908;11.274;2023-11-18T05:59:22;95593.94;;;5.47;76.69
81274;BME280;70753;47.908;11.274;2023-11-18T06:02:10;95596.19;;;5.78;75.63
81274;BME280;70753;47.908;11.274;2023-11-18T06:04:56;95602.09;;;5.45;77.33
81274;BME280;70753;47.908;11.274;2023-11-18T06:07:41;95609.31;;;5.26;78.28
81274;BME280;70753;47.908;11.274;2023-11-18T06:10:27;95608.53;;;5.84;76.00
81274;BME280;70753;47.908;11.274;2023-11-18T06:13:13;95619.38;;;6.22;73.65
81274;BME280;70753;47.908;11.274;2023-11-18T06:15:59;95622.03;;;6.22;74.22
81274;BME280;70753;47.908;11.274;2023-11-18T06:18:47;95625.59;;;6.56;72.86
81274;BME280;70753;47.908;11.274;2023-11-18T06:21:33;95621.78;;;6.63;71.43
81274;BME280;70753;47.908;11.274;2023-11-18T06:24:18;95618.06;;;6.64;71.57
81274;BME280;70753;47.908;11.274;2023-11-18T06:27:04;95616.66;;;6.73;71.27
81274;BME280;70753;47.908;11.274;2023-11-18T06:29:50;95621.53;;;6.25;72.48
81274;BME280;70753;47.908;11.274;2023-11-18T06:32:35;95616.63;;;6.17;73.11
81274;BME280;70753;47.908;11.274;2023-11-18T06:35:23;95620.47;;;5.75;75.34
81274;BME280;70753;47.908;11.274;2023-11-18T06:38:08;95603.78;;;6.09;73.26
81274;BME280;70753;47.908;11.274;2023-11-18T06:40:54;95608.88;;;5.99;73.77
81274;BME280;70753;47.908;11.274;2023-11-18T06:43:41;95614.13;;;5.76;74.84
81274;BME280;70753;47.908;11.274;2023-11-18T06:46:28;95614.00;;;5.82;74.60
81274;BME280;70753;47.908;11.274;2023-11-18T06:49:14;95615.31;;;5.33;77.46
81274;BME280;70753;47.908;11.274;2023-11-18T06:52:01;95611.06;;;5.32;77.83
81274;BME280;70753;47.908;11.274;2023-11-18T06:54:46;95611.84;;;5.68;76.24
81274;BME280;70753;47.908;11.274;2023-11-18T06:57:32;95608.63;;;5.54;76.35
81274;BME280;70753;47.908;11.274;2023-11-18T07:00:19;95607.84;;;5.54;76.45
81274;BME280;70753;47.908;11.274;2023-11-18T07:03:04;95614.47;;;6.14;73.98
81274;BME280;70753;47.908;11.274;2023-11-18T07:05:50;95609.00;;;6.32;73.19
81274;BME280;70753;47.908;11.274;2023-11-18T07:08:37;95610.03;;;5.33;77.05
81274;BME280;70753;47.908;11.274;2023-11-18T07:11:23;95612.91;;;5.55;77.06
81274;BME280;70753;47.908;11.274;2023-11-18T07:14:09;95607.69;;;5.95;75.56
81274;BME280;70753;47.908;11.274;2023-11-18T07:16:56;95621.38;;;6.43;73.85
81274;BME280;70753;47.908;11.274;2023-11-18T07:19:41;95616.97;;;6.77;72.09
81274;BME280;70753;47.908;11.274;2023-11-18T07:22:27;95619.97;;;6.80;71.49
81274;BME280;70753;47.908;11.274;2023-11-18T07:25:14;95616.81;;;6.83;71.26
81274;BME280;70753;47.908;11.274;2023-11-18T07:28:00;95624.50;;;6.68;71.29
81274;BME280;70753;47.908;11.274;2023-11-18T07:30:46;95620.53;;;6.82;70.58
81274;BME280;70753;47.908;11.274;2023-11-18T07:33:32;95619.44;;;6.95;70.91
81274;BME280;70753;47.908;11.274;2023-11-18T07:36:18;95624.31;;;6.18;73.10
81274;BME280;70753;47.908;11.274;2023-11-18T07:39:04;95624.88;;;6.88;70.87
81274;BME280;70753;47.908;11.274;2023-11-18T07:41:51;95631.47;;;7.03;69.78
81274;BME280;70753;47.908;11.274;2023-11-18T07:44:37;95627.03;;;6.91;70.37
81274;BME280;70753;47.908;11.274;2023-11-18T07:47:23;95631.03;;;6.49;71.98
81274;BME280;70753;47.908;11.274;2023-11-18T07:50:09;95629.88;;;6.85;70.45
81274;BME280;70753;47.908;11.274;2023-11-18T07:52:54;95626.28;;;6.79;71.30
81274;BME280;70753;47.908;11.274;2023-11-18T07:55:40;95625.91;;;6.59;71.06
81274;BME280;70753;47.908;11.274;2023-11-18T07:58:27;95628.38;;;6.77;70.21
81274;BME280;70753;47.908;11.274;2023-11-18T08:01:14;95632.44;;;6.96;69.39
81274;BME280;70753;47.908;11.274;2023-11-18T08:03:59;95626.72;;;7.05;69.71
81274;BME280;70753;47.908;11.274;2023-11-18T08:06:45;95634.38;;;7.18;69.81
81274;BME280;70753;47.908;11.274;2023-11-18T08:09:31;95637.59;;;7.20;70.03
81274;BME280;70753;47.908;11.274;2023-11-18T08:12:17;95641.03;;;7.04;68.63
81274;BME280;70753;47.908;11.274;2023-11-18T08:15:05;95634.34;;;6.84;69.81
81274;BME280;70753;47.908;11.274;2023-11-18T08:17:51;95636.22;;;7.01;69.81
81274;BME280;70753;47.908;11.274;2023-11-18T08:20:37;95646.66;;;7.24;69.73
81274;BME280;70753;47.908;11.274;2023-11-18T08:23:23;95639.38;;;7.31;69.90
81274;BME280;70753;47.908;11.274;2023-11-18T08:26:11;95639.38;;;6.69;71.29
81274;BME280;70753;47.908;11.274;2023-11-18T08:28:57;95639.22;;;7.21;69.71
81274;BME280;70753;47.908;11.274;2023-11-18T08:31:44;95629.41;;;7.38;69.92
81274;BME280;70753;47.908;11.274;2023-11-18T08:34:30;95629.31;;;7.66;67.80
81274;BME280;70753;47.908;11.274;2023-11-18T08:37:15;95635.66;;;7.82;67.75
81274;BME280;70753;47.908;11.274;2023-11-18T08:40:01;95632.41;;;7.80;66.07
81274;BME280;70753;47.908;11.274;2023-11-18T08:42:48;95632.19;;;7.81;65.95
81274;BME280;70753;47.908;11.274;2023-11-18T08:45:34;95638.25;;;7.98;65.62
81274;BME280;70753;47.908;11.274;2023-11-18T08:48:21;95633.25;;;8.02;65.39
81274;BME280;70753;47.908;11.274;2023-11-18T08:51:07;95626.03;;;8.19;65.82
81274;BME280;70753;47.908;11.274;2023-11-18T08:53:53;95626.59;;;8.37;64.28
81274;BME280;70753;47.908;11.274;2023-11-18T08:56:39;95622.25;;;7.93;65.92
81274;BME280;70753;47.908;11.274;2023-11-18T08:59:25;95625.97;;;8.30;64.76
81274;BME280;70753;47.908;11.274;2023-11-18T09:02:10;95629.53;;;7.81;66.12
81274;BME280;70753;47.908;11.274;2023-11-18T09:04:58;95633.47;;;7.79;67.28
81274;BME280;70753;47.908;11.274;2023-11-18T09:07:43;95626.75;;;8.09;64.10
81274;BME280;70753;47.908;11.274;2023-11-18T09:10:29;95617.06;;;7.82;65.54
81274;BME280;70753;47.908;11.274;2023-11-18T09:13:15;95634.50;;;7.94;65.75
81274;BME280;70753;47.908;11.274;2023-11-18T09:16:02;95625.91;;;8.25;65.06
81274;BME280;70753;47.908;11.274;2023-11-18T09:18:48;95620.84;;;8.45;62.93
81274;BME280;70753;47.908;11.274;2023-11-18T09:21:36;95626.88;;;8.89;63.73
81274;BME280;70753;47.908;11.274;2023-11-18T09:24:21;95622.56;;;8.57;62.15
81274;BME280;70753;47.908;11.274;2023-11-18T09:27:07;95631.84;;;8.32;61.89
81274;BME280;70753;47.908;11.274;2023-11-18T09:29:53;95636.41;;;9.12;61.73
81274;BME280;70753;47.908;11.274;2023-11-18T09:32:39;95625.19;;;9.73;59.47
81274;BME280;70753;47.908;11.274;2023-11-18T09:35:25;95608.84;;;10.01;59.85
81274;BME280;70753;47.908;11.274;2023-11-18T09:38:12;95607.75;;;10.44;56.75
81274;BME280;70753;47.908;11.274;2023-11-18T09:40:59;95614.97;;;9.55;58.79
81274;BME280;70753;47.908;11.274;2023-11-18T09:43:46;95629.06;;;9.97;58.13
81274;BME280;70753;47.908;11.274;2023-11-18T09:46:33;95630.22;;;10.58;56.82
81274;BME280;70753;47.908;11.274;2023-11-18T09:49:25;95624.09;;;10.68;56.03
81274;BME280;70753;47.908;11.274;2023-11-18T09:52:15;95614.91;;;9.87;57.70
81274;BME280;70753;47.908;11.274;2023-11-18T09:55:07;95612.47;;;9.80;58.47
81274;BME280;70753;47.908;11.274;2023-11-18T09:57:59;95612.28;;;9.97;58.59
81274;BME280;70753;47.908;11.274;2023-11-18T10:00:50;95613.75;;;10.82;55.20
81274;BME280;70753;47.908;11.274;2023-11-18T10:03:41;95605.47;;;10.93;55.71
81274;BME280;70753;47.908;11.274;2023-11-18T10:06:27;95604.53;;;10.42;56.33
81274;BME280;70753;47.908;11.274;2023-11-18T10:09:13;95593.78;;;11.34;55.24
81274;BME280;70753;47.908;11.274;2023-11-18T10:12:00;95597.50;;;10.98;54.89
81274;BME280;70753;47.908;11.274;2023-11-18T10:14:47;95597.78;;;11.62;51.32
81274;BME280;70753;47.908;11.274;2023-11-18T10:17:32;95592.09;;;12.19;52.07
81274;BME280;70753;47.908;11.274;2023-11-18T10:20:18;95591.84;;;12.79;51.20
81274;BME280;70753;47.908;11.274;2023-11-18T10:23:08;95576.56;;;13.24;50.00
81274;BME280;70753;47.908;11.274;2023-11-18T10:25:55;95578.22;;;13.82;48.09
81274;BME280;70753;47.908;11.274;2023-11-18T10:28:42;95573.22;;;13.99;48.48
81274;BME280;70753;47.908;11.274;2023-11-18T10:31:28;95567.69;;;13.62;47.13
81274;BME280;70753;47.908;11.274;2023-11-18T10:34:14;95567.69;;;13.62;45.93
81274;BME280;70753;47.908;11.274;2023-11-18T10:37:01;95563.41;;;14.13;45.76
81274;BME280;70753;47.908;11.274;2023-11-18T10:39:47;95563.28;;;14.71;45.40
81274;BME280;70753;47.908;11.274;2023-11-18T10:42:33;95571.66;;;15.57;43.35
81274;BME280;70753;47.908;11.274;2023-11-18T10:45:24;95570.47;;;13.80;46.97
81274;BME280;70753;47.908;11.274;2023-11-18T10:48:11;95566.16;;;14.08;46.66
81274;BME280;70753;47.908;11.274;2023-11-18T10:50:57;95565.16;;;14.51;45.04
81274;BME280;70753;47.908;11.274;2023-11-18T10:53:43;95566.22;;;13.46;46.22
81274;BME280;70753;47.908;11.274;2023-11-18T10:56:29;95574.41;;;13.88;43.71
81274;BME280;70753;47.908;11.274;2023-11-18T10:59:16;95583.38;;;13.45;45.13
81274;BME280;70753;47.908;11.274;2023-11-18T11:02:19;95589.09;;;12.89;46.00
81274;BME280;70753;47.908;11.274;2023-11-18T11:05:05;95586.22;;;12.12;47.71
81274;BME280;70753;47.908;11.274;2023-11-18T11:07:51;95582.22;;;12.19;47.82
81274;BME280;70753;47.908;11.274;2023-11-18T11:10:37;95577.09;;;12.23;49.72
81274;BME280;70753;47.908;11.274;2023-11-18T11:13:23;95569.69;;;13.13;47.54
81274;BME280;70753;47.908;11.274;2023-11-18T11:16:12;95577.47;;;13.04;46.76
81274;BME280;70753;47.908;11.274;2023-11-18T11:19:04;95576.91;;;12.63;47.16
81274;BME280;70753;47.908;11.274;2023-11-18T11:21:57;95579.34;;;12.65;47.01
81274;BME280;70753;47.908;11.274;2023-11-18T11:24:54;95582.41;;;12.33;49.03
81274;BME280;70753;47.908;11.274;2023-11-18T11:27:43;95586.31;;;11.92;50.27
81274;BME280;70753;47.908;11.274;2023-11-18T11:30:39;95590.00;;;12.11;50.28
81274;BME280;70753;47.908;11.274;2023-11-18T11:33:31;95598.44;;;12.38;49.79
81274;BME280;70753;47.908;11.274;2023-11-18T11:36:21;95593.16;;;12.82;46.74
81274;BME280;70753;47.908;11.274;2023-11-18T11:39:07;95582.22;;;12.14;47.70
81274;BME280;70753;47.908;11.274;2023-11-18T11:41:54;95579.00;;;12.17;47.85
81274;BME280;70753;47.908;11.274;2023-11-18T11:44:40;95578.66;;;12.34;47.44
81274;BME280;70753;47.908;11.274;2023-11-18T11:47:27;95578.09;;;12.42;48.17
81274;BME280;70753;47.908;11.274;2023-11-18T11:50:17;95576.38;;;12.66;47.30
81274;BME280;70753;47.908;11.274;2023-11-18T11:53:13;95574.59;;;12.95;45.54
81274;BME280;70753;47.908;11.274;2023-11-18T11:56:02;95561.78;;;12.92;46.77
81274;BME280;70753;47.908;11.274;2023-11-18T11:58:48;95558.31;;;12.92;46.74
81274;BME280;70753;47.908;11.274;2023-11-18T12:01:35;95556.81;;;12.17;46.81
81274;BME280;70753;47.908;11.274;2023-11-18T12:04:23;95559.03;;;11.95;47.01
81274;BME280;70753;47.908;11.274;2023-11-18T12:07:09;95551.81;;;12.59;47.34
81274;BME280;70753;47.908;11.274;2023-11-18T12:09:57;95548.16;;;12.45;45.87
81274;BME280;70753;47.908;11.274;2023-11-18T12:12:43;95541.81;;;12.26;47.29
81274;BME280;70753;47.908;11.274;2023-11-18T12:15:50;95543.06;;;12.44;47.53
81274;BME280;70753;47.908;11.274;2023-11-18T12:18:36;95539.78;;;11.98;47.26
81274;BME280;70753;47.908;11.274;2023-11-18T12:21:53;95541.72;;;11.72;47.76
81274;BME280;70753;47.908;11.274;2023-11-18T12:24:39;95519.66;;;12.20;47.39
81274;BME280;70753;47.908;11.274;2023-11-18T12:27:45;95527.41;;;12.17;48.81
81274;BME280;70753;47.908;11.274;2023-11-18T12:30:38;95518.34;;;12.13;48.94
81274;BME280;70753;47.908;11.274;2023-11-18T12:40:23;95518.25;;;11.39;47.68
81274;BME280;70753;47.908;11.274;2023-11-18T12:43:15;95512.13;;;11.28;48.71
81274;BME280;70753;47.908;11.274;2023-11-18T12:46:29;95499.00;;;11.72;47.19
81274;BME280;70753;47.908;11.274;2023-11-18T12:49:25;95500.47;;;12.08;47.16
81274;BME280;70753;47.908;11.274;2023-11-18T12:52:11;95484.16;;;12.05;47.22
81274;BME280;70753;47.908;11.274;2023-11-18T12:54:57;95487.84;;;12.24;46.99
81274;BME280;70753;47.908;11.274;2023-11-18T12:57:45;95487.16;;;12.47;47.33
81274;BME280;70753;47.908;11.274;2023-11-18T13:00:33;95488.88;;;12.72;48.63
81274;BME280;70753;47.908;11.274;2023-11-18T13:03:18;95494.00;;;12.14;46.41
81274;BME280;70753;47.908;11.274;2023-11-18T13:06:05;95489.06;;;12.42;46.84
81274;BME280;70753;47.908;11.274;2023-11-18T13:08:51;95491.94;;;12.50;47.37
81274;BME280;70753;47.908;11.274;2023-11-18T13:11:38;95482.97;;;12.31;47.49
81274;BME280;70753;47.908;11.274;2023-11-18T13:14:24;95472.00;;;11.74;48.29
81274;BME280;70753;47.908;11.274;2023-11-18T13:17:14;95471.06;;;10.99;49.29
81274;BME280;70753;47.908;11.274;2023-11-18T13:20:11;95475.25;;;11.50;48.81
81274;BME280;70753;47.908;11.274;2023-11-18T13:22:57;95464.09;;;10.78;50.39
81274;BME280;70753;47.908;11.274;2023-11-18T13:25:42;95460.41;;;10.69;49.97
81274;BME280;70753;47.908;11.274;2023-11-18T13:28:28;95459.59;;;10.84;50.08
81274;BME280;70753;47.908;11.274;2023-11-18T13:31:14;95457.69;;;11.24;49.45
81274;BME280;70753;47.908;11.274;2023-11-18T13:34:01;95465.66;;;11.39;49.83
81274;BME280;70753;47.908;11.274;2023-11-18T13:36:48;95466.25;;;11.16;48.04
81274;BME280;70753;47.908;11.274;2023-11-18T13:39:34;95452.84;;;10.11;51.70
81274;BME280;70753;47.908;11.274;2023-11-18T13:42:21;95449.44;;;10.55;50.87
81274;BME280;70753;47.908;11.274;2023-11-18T13:45:11;95453.72;;;10.41;50.81
81274;BME280;70753;47.908;11.274;2023-11-18T13:47:57;95450.78;;;10.58;50.55
81274;BME280;70753;47.908;11.274;2023-11-18T13:50:45;95439.56;;;10.76;49.71
81274;BME280;70753;47.908;11.274;2023-11-18T13:53:31;95432.63;;;11.05;49.43
81274;BME280;70753;47.908;11.274;2023-11-18T13:56:18;95445.94;;;11.10;50.88
81274;BME280;70753;47.908;11.274;2023-11-18T13:59:04;95435.31;;;11.05;50.43
81274;BME280;70753;47.908;11.274;2023-11-18T14:01:51;95432.13;;;10.68;50.60
81274;BME280;70753;47.908;11.274;2023-11-18T14:04:39;95423.56;;;10.96;51.12
81274;BME280;70753;47.908;11.274;2023-11-18T14:07:27;95429.66;;;11.27;50.13
81274;BME280;70753;47.908;11.274;2023-11-18T14:10:13;95428.19;;;11.80;49.95
81274;BME280;70753;47.908;11.274;2023-11-18T14:13:02;95436.50;;;11.58;49.67
81274;BME280;70753;47.908;11.274;2023-11-18T14:15:48;95432.59;;;11.10;49.94
81274;BME280;70753;47.908;11.274;2023-11-18T14:18:34;95435.81;;;11.27;49.24
81274;BME280;70753;47.908;11.274;2023-11-18T14:21:20;95428.09;;;10.15;50.96
81274;BME280;70753;47.908;11.274;2023-11-18T14:24:08;95416.63;;;10.25;51.24
81274;BME280;70753;47.908;11.274;2023-11-18T14:26:54;95404.94;;;10.41;51.22
81274;BME280;70753;47.908;11.274;2023-11-18T14:29:40;95409.03;;;9.76;52.58
81274;BME280;70753;47.908;11.274;2023-11-18T14:32:26;95402.25;;;10.46;52.40
81274;BME280;70753;47.908;11.274;2023-11-18T14:35:11;95406.28;;;10.58;52.78
81274;BME280;70753;47.908;11.274;2023-11-18T14:37:57;95402.81;;;10.43;53.10
81274;BME280;70753;47.908;11.274;2023-11-18T14:40:45;95402.00;;;10.52;54.32
81274;BME280;70753;47.908;11.274;2023-11-18T14:43:31;95390.53;;;10.37;55.74
81274;BME280;70753;47.908;11.274;2023-11-18T14:46:17;95402.22;;;10.11;57.34
81274;BME280;70753;47.908;11.274;2023-11-18T14:49:03;95405.38;;;9.97;58.58